createdAt,value
2022-11-15T00:04:14.906Z,100381.09
2022-11-15T00:08:35.162Z,100389.59
2022-11-15T00:12:54.979Z,100384.13
2022-11-15T00:17:14.941Z,100377.59
2022-11-15T00:21:34.943Z,100365.38
2022-11-15T00:25:57.644Z,100364.44
2022-11-15T00:30:17.623Z,100365.28
2022-11-15T00:34:37.768Z,100369.16
2022-11-15T00:38:57.811Z,100374.16
2022-11-15T00:43:18.087Z,100358.94
2022-11-15T00:47:37.982Z,100358.84
2022-11-15T00:51:58.287Z,100361.00
2022-11-15T00:56:18.289Z,100364.59
2022-11-15T01:00:38.457Z,100351.69
2022-11-15T01:04:58.895Z,100355.19
2022-11-15T01:09:19.105Z,100347.38
2022-11-15T01:13:40.285Z,100343.66
2022-11-15T01:18:00.465Z,100345.06
2022-11-15T01:22:20.877Z,100342.44
2022-11-15T01:26:40.881Z,100350.28
2022-11-15T01:31:02.185Z,100347.44
2022-11-15T01:35:22.534Z,100329.25
2022-11-15T01:39:42.595Z,100332.69
2022-11-15T01:44:34.393Z,100333.16
2022-11-15T01:48:57.787Z,100325.38
2022-11-15T01:53:20.857Z,100326.38
2022-11-15T01:57:43.938Z,100320.41
2022-11-15T02:02:04.463Z,100314.94
2022-11-15T02:06:24.748Z,100305.28
2022-11-15T02:10:45.030Z,100300.16
2022-11-15T02:15:08.045Z,100295.81
2022-11-15T02:19:34.533Z,100295.03
2022-11-15T02:24:25.740Z,100287.25
2022-11-15T02:28:57.957Z,100291.91
2022-11-15T02:33:40.210Z,100286.00
2022-11-15T02:38:10.001Z,100285.16
2022-11-15T02:42:55.054Z,100274.97
2022-11-15T02:47:18.660Z,100261.91
2022-11-15T02:51:40.784Z,100265.41
2022-11-15T02:56:00.847Z,100259.72
2022-11-15T03:00:22.088Z,100261.59
2022-11-15T03:04:57.033Z,100253.50
2022-11-15T03:09:53.651Z,100250.84
2022-11-15T03:14:49.653Z,100244.03
2022-11-15T03:19:22.002Z,100237.19
2022-11-15T03:23:42.434Z,100243.31
2022-11-15T03:28:07.033Z,100237.31
2022-11-15T03:32:31.696Z,100235.78
2022-11-15T03:36:52.630Z,100227.06
2022-11-15T03:41:31.563Z,100227.47
2022-11-15T03:45:57.566Z,100232.19
2022-11-15T03:50:23.569Z,100224.91
2022-11-15T03:54:57.524Z,100227.59
2022-11-15T03:59:17.727Z,100219.75
2022-11-15T04:03:37.591Z,100212.47
2022-11-15T04:07:57.501Z,100218.06
2022-11-15T04:12:31.599Z,100215.78
2022-11-15T04:16:51.691Z,100202.03
2022-11-15T04:21:30.293Z,100209.94
2022-11-15T04:25:53.187Z,100211.19
2022-11-15T04:30:13.329Z,100198.63
2022-11-15T04:34:34.045Z,100197.84
2022-11-15T04:38:53.869Z,100185.81
2022-11-15T04:43:13.950Z,100192.81
2022-11-15T04:47:33.832Z,100190.41
2022-11-15T04:51:54.182Z,100198.94
2022-11-15T04:56:14.286Z,100190.41
2022-11-15T05:00:34.555Z,100189.75
2022-11-15T05:04:54.613Z,100185.81
2022-11-15T05:09:15.249Z,100189.91
2022-11-15T05:13:35.571Z,100185.72
2022-11-15T05:18:01.335Z,100174.66
2022-11-15T05:22:21.383Z,100181.59
2022-11-15T05:26:41.553Z,100172.66
2022-11-15T05:31:06.904Z,100174.34
2022-11-15T05:35:34.259Z,100179.81
2022-11-15T05:39:54.552Z,100172.03
2022-11-15T05:44:20.229Z,100169.00
2022-11-15T05:48:44.214Z,100171.59
2022-11-15T05:53:05.494Z,100174.13
2022-11-15T05:57:26.193Z,100182.44
2022-11-15T06:01:46.803Z,100176.59
2022-11-15T06:06:07.748Z,100184.28
2022-11-15T06:10:30.352Z,100182.59
2022-11-15T06:14:50.440Z,100184.38
2022-11-15T06:19:12.674Z,100181.59
2022-11-15T06:23:34.344Z,100173.25
2022-11-15T06:27:55.741Z,100176.94
2022-11-15T06:32:15.668Z,100190.69
2022-11-15T06:36:37.195Z,100189.69
2022-11-15T06:41:03.434Z,100190.91
2022-11-15T06:45:23.770Z,100187.28
2022-11-15T06:49:45.448Z,100186.81
2022-11-15T06:54:06.274Z,100178.69
2022-11-15T06:58:28.346Z,100181.47
2022-11-15T07:02:49.532Z,100189.19
2022-11-15T07:07:10.570Z,100190.31
2022-11-15T07:11:31.184Z,100193.72
2022-11-15T07:15:51.395Z,100184.81
2022-11-15T07:20:14.145Z,100206.25
2022-11-15T07:24:34.156Z,100205.44
2022-11-15T07:28:54.541Z,100207.53
2022-11-15T07:33:14.656Z,100198.50
2022-11-15T07:37:34.670Z,100198.84
2022-11-15T07:42:14.783Z,100207.59
2022-11-15T07:46:35.243Z,100206.25
2022-11-15T07:50:55.668Z,100210.28
2022-11-15T07:55:16.154Z,100199.16
2022-11-15T07:59:36.299Z,100193.13
2022-11-15T08:03:56.743Z,100200.88
2022-11-15T08:08:17.146Z,100205.47
2022-11-15T08:12:37.426Z,100197.97
2022-11-15T08:16:57.880Z,100187.84
2022-11-15T08:21:20.870Z,100187.00
2022-11-15T08:25:41.006Z,100183.22
2022-11-15T08:36:03.335Z,100170.84
2022-11-15T08:40:23.802Z,100182.16
2022-11-15T08:44:44.163Z,100182.03
2022-11-15T08:49:04.599Z,100179.09
2022-11-15T08:53:26.481Z,100176.66
2022-11-15T08:57:47.525Z,100172.19
2022-11-15T09:02:14.628Z,100162.22
2022-11-15T09:06:43.407Z,100168.38
2022-11-15T09:11:06.020Z,100163.16
2022-11-15T09:15:25.964Z,100169.41
2022-11-15T09:19:49.775Z,100159.25
2022-11-15T09:30:16.114Z,100159.53
2022-11-15T09:34:36.644Z,100151.66
2022-11-15T09:39:12.052Z,100149.44
2022-11-15T09:43:55.934Z,100147.16
2022-11-15T09:48:41.066Z,100144.47
2022-11-15T09:53:51.050Z,100148.47
2022-11-15T09:58:11.801Z,100149.91
2022-11-15T10:02:38.223Z,100143.22
2022-11-15T10:06:56.266Z,100136.28
2022-11-15T10:11:36.242Z,100128.59
2022-11-15T10:15:34.529Z,100124.56
2022-11-15T10:20:18.917Z,100115.53
2022-11-15T10:24:33.637Z,100123.50
2022-11-15T10:28:38.413Z,100098.59
2022-11-15T10:33:18.503Z,100100.34
2022-11-15T10:37:32.498Z,100097.97
2022-11-15T10:41:38.875Z,100087.13
2022-11-15T10:45:42.117Z,100079.81
2022-11-15T10:50:04.882Z,100073.28
2022-11-15T10:54:13.744Z,100087.66
2022-11-15T10:58:47.269Z,100071.88
2022-11-15T11:02:58.171Z,100070.00
2022-11-15T11:07:01.450Z,100068.59
2022-11-15T11:11:05.762Z,100058.72
2022-11-15T11:15:14.180Z,100049.63
2022-11-15T11:19:36.103Z,100048.88
2022-11-15T11:23:53.548Z,100037.63
2022-11-15T11:28:17.518Z,100032.75
2022-11-15T11:32:43.997Z,100018.72
2022-11-15T11:37:03.636Z,100014.50
2022-11-15T11:42:15.670Z,100022.91
2022-11-15T11:46:17.114Z,100016.97
2022-11-15T11:50:21.871Z,100008.88
2022-11-15T11:54:39.071Z,99998.88
2022-11-15T11:58:43.932Z,99995.66
2022-11-15T12:03:19.754Z,99982.09
2022-11-15T12:07:25.593Z,99976.75
2022-11-15T12:11:57.471Z,99978.25
2022-11-15T12:16:15.943Z,99969.22
2022-11-15T12:20:22.716Z,99970.91
2022-11-15T12:24:29.322Z,99946.94
2022-11-15T12:29:07.926Z,99950.47
2022-11-15T12:33:42.997Z,99954.53
2022-11-15T12:37:50.517Z,99936.66
2022-11-15T12:41:57.905Z,99923.97
2022-11-15T12:46:05.473Z,99925.72
2022-11-15T12:50:13.658Z,99928.13
2022-11-15T12:54:24.335Z,99910.06
2022-11-15T12:58:43.309Z,99913.03
2022-11-15T13:02:46.403Z,99909.81
2022-11-15T13:06:49.081Z,99917.38
2022-11-15T13:10:51.684Z,99903.53
2022-11-15T13:15:14.623Z,99897.03
2022-11-15T13:19:16.518Z,99893.66
2022-11-15T13:23:18.251Z,99898.75
2022-11-15T13:27:20.600Z,99899.81
2022-11-15T13:31:30.454Z,99899.16
2022-11-15T13:35:34.575Z,99897.69
2022-11-15T13:39:38.458Z,99893.94
2022-11-15T13:43:39.950Z,99885.16
2022-11-15T13:47:41.493Z,99901.16
2022-11-15T13:51:54.701Z,99892.09
2022-11-15T13:55:59.362Z,99894.22
2022-11-15T14:00:05.447Z,99895.13
2022-11-15T14:04:19.072Z,99877.88
2022-11-15T14:08:20.456Z,99879.19
2022-11-15T14:12:30.682Z,99881.22
2022-11-15T14:16:37.179Z,99868.25
2022-11-15T14:20:40.233Z,99876.47
2022-11-15T14:24:46.888Z,99870.53
2022-11-15T14:28:48.593Z,99869.75
2022-11-15T14:32:51.760Z,99875.41
2022-11-15T14:36:53.632Z,99862.97
2022-11-15T14:40:56.692Z,99871.19
2022-11-15T14:45:01.395Z,99851.44
2022-11-15T14:49:02.960Z,99855.50
2022-11-15T14:53:05.449Z,99856.13
2022-11-15T14:57:06.984Z,99847.09
2022-11-15T15:01:22.204Z,99843.59
2022-11-15T15:05:33.443Z,99849.53
2022-11-15T15:09:34.919Z,99858.53
2022-11-15T15:13:36.589Z,99850.56
2022-11-15T15:17:38.254Z,99861.94
2022-11-15T15:21:40.132Z,99848.94
2022-11-15T15:25:42.856Z,99841.16
2022-11-15T15:29:44.446Z,99848.75
2022-11-15T15:33:46.148Z,99834.59
2022-11-15T15:37:49.218Z,99826.47
2022-11-15T15:41:54.861Z,99839.41
2022-11-15T15:46:01.528Z,99840.38
2022-11-15T15:50:04.355Z,99836.28
2022-11-15T15:54:06.022Z,99831.66
2022-11-15T15:58:09.064Z,99825.94
2022-11-15T16:02:16.587Z,99830.19
2022-11-15T16:06:36.315Z,99829.97
2022-11-15T16:10:37.994Z,99828.59
2022-11-15T16:14:39.696Z,99835.97
2022-11-15T16:18:41.217Z,99834.28
2022-11-15T16:22:42.838Z,99836.09
2022-11-15T16:26:45.735Z,99825.28
2022-11-15T16:30:50.022Z,99819.31
2022-11-15T16:35:21.422Z,99826.16
2022-11-15T16:39:23.543Z,99835.00
2022-11-15T16:48:54.709Z,99823.78
2022-11-15T16:52:58.821Z,99814.31
2022-11-15T16:57:00.305Z,99808.34
2022-11-15T17:01:01.991Z,99812.00
2022-11-15T17:05:09.614Z,99800.78
2022-11-15T17:09:19.033Z,99792.31
2022-11-15T17:13:20.504Z,99796.09
2022-11-15T17:17:22.074Z,99788.69
2022-11-15T17:21:23.619Z,99786.44
2022-11-15T17:25:25.318Z,99778.59
2022-11-15T17:29:26.803Z,99788.25
2022-11-15T17:33:28.372Z,99792.06
2022-11-15T17:37:30.024Z,99783.03
2022-11-15T17:41:31.829Z,99781.94
2022-11-15T17:45:33.449Z,99786.44
2022-11-15T17:49:39.245Z,99777.75
2022-11-15T17:53:43.175Z,99780.81
2022-11-15T17:57:44.812Z,99781.41
2022-11-15T18:01:46.328Z,99778.38
2022-11-15T18:05:48.071Z,99776.69
2022-11-15T18:09:49.634Z,99770.88
2022-11-15T18:13:54.477Z,99773.19
2022-11-15T18:18:00.748Z,99763.91
2022-11-15T18:22:04.435Z,99765.94
2022-11-15T18:26:07.672Z,99753.00
2022-11-15T18:30:09.749Z,99753.66
2022-11-15T18:34:11.517Z,99746.19
2022-11-15T18:38:12.971Z,99745.47
2022-11-15T18:42:14.615Z,99738.50
2022-11-15T18:46:19.144Z,99736.09
2022-11-15T18:50:20.686Z,99732.50
2022-11-15T18:54:26.780Z,99735.50
2022-11-15T18:58:33.980Z,99731.09
2022-11-15T19:02:35.532Z,99718.09
2022-11-15T19:06:42.426Z,99720.88
2022-11-15T19:10:43.984Z,99729.25
2022-11-15T19:14:45.492Z,99720.41
2022-11-15T19:18:46.992Z,99722.25
2022-11-15T19:22:48.537Z,99726.31
2022-11-15T19:26:50.361Z,99714.31
2022-11-15T19:30:52.158Z,99705.75
2022-11-15T19:34:53.739Z,99719.59
2022-11-15T19:38:56.434Z,99701.78
2022-11-15T19:42:58.079Z,99723.34
2022-11-15T19:46:59.625Z,99706.31
2022-11-15T19:51:02.991Z,99710.16
2022-11-15T19:55:05.409Z,99713.88
2022-11-15T19:59:07.549Z,99704.59
2022-11-15T20:03:09.030Z,99703.75
2022-11-15T20:07:10.780Z,99696.38
2022-11-15T20:11:13.332Z,99699.16
2022-11-15T20:15:15.128Z,99707.59
2022-11-15T20:19:16.734Z,99693.56
2022-11-15T20:23:18.887Z,99684.44
2022-11-15T20:27:20.478Z,99690.63
2022-11-15T20:31:22.084Z,99695.28
2022-11-15T20:35:23.831Z,99689.72
2022-11-15T20:39:25.429Z,99699.00
2022-11-15T20:43:27.120Z,99697.59
2022-11-15T20:47:31.462Z,99693.38
2022-11-15T20:51:33.220Z,99692.34
2022-11-15T20:55:40.802Z,99680.19
2022-11-15T20:59:42.409Z,99678.63
2022-11-15T21:03:44.082Z,99668.31
2022-11-15T21:07:45.916Z,99669.72
2022-11-15T21:12:05.993Z,99655.44
2022-11-15T21:16:08.196Z,99658.38
2022-11-15T21:20:11.068Z,99650.03
2022-11-15T21:24:12.944Z,99650.13
2022-11-15T21:28:14.498Z,99640.34
2022-11-15T21:32:16.175Z,99642.81
2022-11-15T21:36:17.756Z,99644.53
2022-11-15T21:40:19.619Z,99648.88
2022-11-15T21:44:24.168Z,99639.16
2022-11-15T21:48:27.150Z,99628.41
2022-11-15T21:52:29.027Z,99634.91
2022-11-15T21:56:31.030Z,99628.44
2022-11-15T22:00:50.940Z,99630.47
2022-11-15T22:04:52.662Z,99621.22
2022-11-15T22:08:54.184Z,99625.88
2022-11-15T22:12:55.766Z,99631.00
2022-11-15T22:16:57.222Z,99614.22
2022-11-15T22:21:07.288Z,99627.16
2022-11-15T22:25:08.896Z,99603.66
2022-11-15T22:29:10.397Z,99593.59
2022-11-15T22:33:11.944Z,99592.66
2022-11-15T22:37:20.531Z,99583.44
2022-11-15T22:41:22.856Z,99580.75
2022-11-15T22:45:24.403Z,99571.94
2022-11-15T22:49:25.871Z,99568.66
2022-11-15T22:53:27.481Z,99567.63
2022-11-15T22:57:29.010Z,99558.25
2022-11-15T23:01:30.647Z,99550.69
2022-11-15T23:05:34.951Z,99546.94
2022-11-15T23:09:36.812Z,99539.50
2022-11-15T23:13:38.302Z,99538.91
2022-11-15T23:17:39.800Z,99533.94
2022-11-15T23:22:02.523Z,99547.41
2022-11-15T23:26:05.717Z,99535.41
2022-11-15T23:30:26.432Z,99524.94
2022-11-15T23:34:28.299Z,99514.91
2022-11-15T23:38:32.892Z,99509.91
2022-11-15T23:42:34.678Z,99507.69
2022-11-15T23:46:36.285Z,99510.69
2022-11-15T23:50:38.045Z,99500.78
2022-11-15T23:54:39.463Z,99497.34
2022-11-15T23:58:42.576Z,99490.97
